sensor_id;sensor_type;location;lat;lon;timestamp;P1;durP1;ratioP1;P2;durP2;ratioP2
15905;SDS011;8051;50.820;4.884;2023-03-23T00:02:22;21.70;;;20.10;;
15905;SDS011;8051;50.820;4.884;2023-03-23T00:04:51;22.33;;;20.57;;
15905;SDS011;8051;50.820;4.884;2023-03-23T00:07:19;22.10;;;20.33;;
15905;SDS011;8051;50.820;4.884;2023-03-23T00:09:49;23.77;;;22.17;;
15905;SDS011;8051;50.820;4.884;2023-03-23T00:12:20;22.63;;;20.93;;
15905;SDS011;8051;50.820;4.884;2023-03-23T00:14:58;21.80;;;20.40;;
15905;SDS011;8051;50.820;4.884;2023-03-23T00:17:25;22.57;;;20.87;;
15905;SDS011;8051;50.820;4.884;2023-03-23T00:19:53;20.60;;;19.30;;
15905;SDS011;8051;50.820;4.884;2023-03-23T00:22:21;21.70;;;20.10;;
15905;SDS011;8051;50.820;4.884;2023-03-23T00:24:51;21.97;;;20.47;;
15905;SDS011;8051;50.820;4.884;2023-03-23T00:27:19;20.73;;;19.33;;
15905;SDS011;8051;50.820;4.884;2023-03-23T00:29:48;20.87;;;19.47;;
15905;SDS011;8051;50.820;4.884;2023-03-23T00:32:18;20.73;;;19.43;;
15905;SDS011;8051;50.820;4.884;2023-03-23T00:34:46;20.20;;;18.80;;
15905;SDS011;8051;50.820;4.884;2023-03-23T00:37:14;22.20;;;20.57;;
15905;SDS011;8051;50.820;4.884;2023-03-23T00:39:43;23.17;;;21.47;;
15905;SDS011;8051;50.820;4.884;2023-03-23T00:42:13;24.30;;;22.50;;
15905;SDS011;8051;50.820;4.884;2023-03-23T00:44:42;22.83;;;21.00;;
15905;SDS011;8051;50.820;4.884;2023-03-23T00:47:10;22.77;;;21.17;;
15905;SDS011;8051;50.820;4.884;2023-03-23T00:49:39;23.27;;;21.77;;
15905;SDS011;8051;50.820;4.884;2023-03-23T00:52:06;21.97;;;20.57;;
15905;SDS011;8051;50.820;4.884;2023-03-23T00:54:34;21.60;;;20.03;;
15905;SDS011;8051;50.820;4.884;2023-03-23T00:57:03;21.83;;;20.03;;
15905;SDS011;8051;50.820;4.884;2023-03-23T00:59:32;21.30;;;20.00;;
15905;SDS011;8051;50.820;4.884;2023-03-23T01:02:00;21.40;;;20.00;;
15905;SDS011;8051;50.820;4.884;2023-03-23T01:04:27;21.20;;;20.00;;
15905;SDS011;8051;50.820;4.884;2023-03-23T01:06:56;21.73;;;20.33;;
15905;SDS011;8051;50.820;4.884;2023-03-23T01:09:25;21.70;;;20.30;;
15905;SDS011;8051;50.820;4.884;2023-03-23T01:11:54;21.03;;;19.63;;
15905;SDS011;8051;50.820;4.884;2023-03-23T01:14:22;21.13;;;19.63;;
15905;SDS011;8051;50.820;4.884;2023-03-23T01:16:51;21.00;;;19.67;;
15905;SDS011;8051;50.820;4.884;2023-03-23T01:19:19;21.00;;;19.60;;
15905;SDS011;8051;50.820;4.884;2023-03-23T01:21:46;21.03;;;19.83;;
15905;SDS011;8051;50.820;4.884;2023-03-23T01:24:14;20.43;;;19.17;;
15905;SDS011;8051;50.820;4.884;2023-03-23T01:26:41;20.50;;;19.20;;
15905;SDS011;8051;50.820;4.884;2023-03-23T01:29:09;20.87;;;19.57;;
15905;SDS011;8051;50.820;4.884;2023-03-23T01:31:37;22.60;;;20.80;;
15905;SDS011;8051;50.820;4.884;2023-03-23T01:34:06;22.43;;;20.70;;
15905;SDS011;8051;50.820;4.884;2023-03-23T01:36:35;22.23;;;20.47;;
15905;SDS011;8051;50.820;4.884;2023-03-23T01:39:03;22.00;;;20.40;;
15905;SDS011;8051;50.820;4.884;2023-03-23T01:41:33;22.33;;;20.73;;
15905;SDS011;8051;50.820;4.884;2023-03-23T01:44:03;21.70;;;20.30;;
15905;SDS011;8051;50.820;4.884;2023-03-23T01:46:33;22.17;;;20.47;;
15905;SDS011;8051;50.820;4.884;2023-03-23T01:49:02;21.37;;;19.97;;
15905;SDS011;8051;50.820;4.884;2023-03-23T01:51:35;21.60;;;20.00;;
15905;SDS011;8051;50.820;4.884;2023-03-23T01:54:08;22.40;;;20.90;;
15905;SDS011;8051;50.820;4.884;2023-03-23T01:56:46;20.83;;;19.33;;
15905;SDS011;8051;50.820;4.884;2023-03-23T01:59:16;20.93;;;19.43;;
15905;SDS011;8051;50.820;4.884;2023-03-23T02:01:45;21.07;;;19.70;;
15905;SDS011;8051;50.820;4.884;2023-03-23T02:04:13;20.93;;;19.50;;
15905;SDS011;8051;50.820;4.884;2023-03-23T02:06:44;21.23;;;19.87;;
15905;SDS011;8051;50.820;4.884;2023-03-23T02:09:12;20.40;;;19.10;;
15905;SDS011;8051;50.820;4.884;2023-03-23T02:11:42;20.17;;;18.97;;
15905;SDS011;8051;50.820;4.884;2023-03-23T02:14:10;20.27;;;18.97;;
15905;SDS011;8051;50.820;4.884;2023-03-23T02:16:39;20.20;;;18.90;;
15905;SDS011;8051;50.820;4.884;2023-03-23T02:19:20;20.20;;;19.00;;
15905;SDS011;8051;50.820;4.884;2023-03-23T02:22:14;20.43;;;19.13;;
15905;SDS011;8051;50.820;4.884;2023-03-23T02:25:00;20.53;;;19.30;;
15905;SDS011;8051;50.820;4.884;2023-03-23T02:27:53;19.63;;;18.20;;
15905;SDS011;8051;50.820;4.884;2023-03-23T02:33:39;18.77;;;17.67;;
15905;SDS011;8051;50.820;4.884;2023-03-23T02:36:13;18.17;;;17.07;;
15905;SDS011;8051;50.820;4.884;2023-03-23T02:38:48;19.40;;;18.00;;
15905;SDS011;8051;50.820;4.884;2023-03-23T02:41:22;19.63;;;18.43;;
15905;SDS011;8051;50.820;4.884;2023-03-23T02:43:53;19.20;;;18.10;;
15905;SDS011;8051;50.820;4.884;2023-03-23T02:46:23;20.10;;;18.90;;
15905;SDS011;8051;50.820;4.884;2023-03-23T02:48:53;20.40;;;19.10;;
15905;SDS011;8051;50.820;4.884;2023-03-23T02:51:23;18.90;;;17.77;;
15905;SDS011;8051;50.820;4.884;2023-03-23T02:53:52;19.77;;;18.47;;
15905;SDS011;8051;50.820;4.884;2023-03-23T02:56:23;19.63;;;18.43;;
15905;SDS011;8051;50.820;4.884;2023-03-23T02:58:53;19.10;;;18.00;;
15905;SDS011;8051;50.820;4.884;2023-03-23T03:04:20;19.10;;;18.00;;
15905;SDS011;8051;50.820;4.884;2023-03-23T03:06:53;19.93;;;18.40;;
15905;SDS011;8051;50.820;4.884;2023-03-23T03:09:40;18.77;;;17.57;;
15905;SDS011;8051;50.820;4.884;2023-03-23T03:12:15;19.40;;;18.00;;
15905;SDS011;8051;50.820;4.884;2023-03-23T03:14:51;20.67;;;19.37;;
15905;SDS011;8051;50.820;4.884;2023-03-23T03:17:30;19.13;;;17.93;;
15905;SDS011;8051;50.820;4.884;2023-03-23T03:20:03;20.67;;;19.23;;
15905;SDS011;8051;50.820;4.884;2023-03-23T03:22:35;20.70;;;19.40;;
15905;SDS011;8051;50.820;4.884;2023-03-23T03:25:07;20.00;;;18.70;;
15905;SDS011;8051;50.820;4.884;2023-03-23T03:27:38;19.57;;;18.37;;
15905;SDS011;8051;50.820;4.884;2023-03-23T03:30:11;19.50;;;18.27;;
15905;SDS011;8051;50.820;4.884;2023-03-23T03:32:43;19.30;;;18.10;;
15905;SDS011;8051;50.820;4.884;2023-03-23T03:35:15;18.43;;;17.33;;
15905;SDS011;8051;50.820;4.884;2023-03-23T03:37:43;19.70;;;18.40;;
15905;SDS011;8051;50.820;4.884;2023-03-23T03:40:12;20.33;;;19.07;;
15905;SDS011;8051;50.820;4.884;2023-03-23T03:42:42;20.30;;;18.90;;
15905;SDS011;8051;50.820;4.884;2023-03-23T03:45:11;20.20;;;18.83;;
15905;SDS011;8051;50.820;4.884;2023-03-23T03:47:40;19.77;;;18.50;;
15905;SDS011;8051;50.820;4.884;2023-03-23T03:50:08;20.20;;;18.80;;
15905;SDS011;8051;50.820;4.884;2023-03-23T03:52:38;21.10;;;19.70;;
15905;SDS011;8051;50.820;4.884;2023-03-23T03:55:06;20.17;;;18.87;;
15905;SDS011;8051;50.820;4.884;2023-03-23T03:57:35;19.83;;;18.63;;
15905;SDS011;8051;50.820;4.884;2023-03-23T04:00:03;19.30;;;18.20;;
15905;SDS011;8051;50.820;4.884;2023-03-23T04:02:39;20.20;;;18.70;;
15905;SDS011;8051;50.820;4.884;2023-03-23T04:05:08;20.50;;;18.87;;
15905;SDS011;8051;50.820;4.884;2023-03-23T04:07:38;20.50;;;19.00;;
15905;SDS011;8051;50.820;4.884;2023-03-23T04:10:06;17.97;;;16.83;;
15905;SDS011;8051;50.820;4.884;2023-03-23T04:12:36;19.13;;;18.03;;
15905;SDS011;8051;50.820;4.884;2023-03-23T04:15:04;20.30;;;19.00;;
15905;SDS011;8051;50.820;4.884;2023-03-23T04:17:32;20.43;;;19.13;;
15905;SDS011;8051;50.820;4.884;2023-03-23T04:20:01;21.20;;;19.60;;
15905;SDS011;8051;50.820;4.884;2023-03-23T04:22:32;20.57;;;18.70;;
15905;SDS011;8051;50.820;4.884;2023-03-23T04:25:01;21.80;;;20.00;;
15905;SDS011;8051;50.820;4.884;2023-03-23T04:27:31;20.30;;;19.00;;
15905;SDS011;8051;50.820;4.884;2023-03-23T04:29:59;19.67;;;18.47;;
15905;SDS011;8051;50.820;4.884;2023-03-23T04:32:28;19.93;;;18.43;;
15905;SDS011;8051;50.820;4.884;2023-03-23T04:34:56;18.97;;;17.73;;
15905;SDS011;8051;50.820;4.884;2023-03-23T04:37:24;20.90;;;19.40;;
15905;SDS011;8051;50.820;4.884;2023-03-23T04:39:58;17.83;;;16.53;;
15905;SDS011;8051;50.820;4.884;2023-03-23T04:42:32;17.50;;;16.47;;
15905;SDS011;8051;50.820;4.884;2023-03-23T04:44:59;17.30;;;16.00;;
15905;SDS011;8051;50.820;4.884;2023-03-23T04:47:27;18.77;;;17.43;;
15905;SDS011;8051;50.820;4.884;2023-03-23T04:49:58;18.30;;;17.10;;
15905;SDS011;8051;50.820;4.884;2023-03-23T04:52:26;17.77;;;16.67;;
15905;SDS011;8051;50.820;4.884;2023-03-23T04:54:54;18.97;;;17.67;;
15905;SDS011;8051;50.820;4.884;2023-03-23T04:57:23;17.57;;;16.20;;
15905;SDS011;8051;50.820;4.884;2023-03-23T04:59:52;18.77;;;17.57;;
15905;SDS011;8051;50.820;4.884;2023-03-23T05:02:20;17.77;;;16.67;;
15905;SDS011;8051;50.820;4.884;2023-03-23T05:04:47;18.83;;;17.47;;
15905;SDS011;8051;50.820;4.884;2023-03-23T05:07:16;17.60;;;16.33;;
15905;SDS011;8051;50.820;4.884;2023-03-23T05:09:46;18.00;;;16.50;;
15905;SDS011;8051;50.820;4.884;2023-03-23T05:12:14;17.37;;;16.17;;
15905;SDS011;8051;50.820;4.884;2023-03-23T05:14:43;19.17;;;17.97;;
15905;SDS011;8051;50.820;4.884;2023-03-23T05:17:11;18.83;;;17.17;;
15905;SDS011;8051;50.820;4.884;2023-03-23T05:19:42;17.73;;;16.73;;
15905;SDS011;8051;50.820;4.884;2023-03-23T05:22:12;18.60;;;17.50;;
15905;SDS011;8051;50.820;4.884;2023-03-23T05:24:40;19.03;;;17.73;;
15905;SDS011;8051;50.820;4.884;2023-03-23T05:27:08;18.83;;;17.60;;
15905;SDS011;8051;50.820;4.884;2023-03-23T05:29:36;17.20;;;16.00;;
15905;SDS011;8051;50.820;4.884;2023-03-23T05:32:07;18.10;;;16.73;;
15905;SDS011;8051;50.820;4.884;2023-03-23T05:34:35;19.83;;;18.63;;
15905;SDS011;8051;50.820;4.884;2023-03-23T05:37:03;19.03;;;17.90;;
15905;SDS011;8051;50.820;4.884;2023-03-23T05:39:31;19.60;;;17.87;;
15905;SDS011;8051;50.820;4.884;2023-03-23T05:41:59;18.40;;;17.20;;
15905;SDS011;8051;50.820;4.884;2023-03-23T05:44:26;17.63;;;16.50;;
15905;SDS011;8051;50.820;4.884;2023-03-23T05:46:54;19.37;;;17.70;;
15905;SDS011;8051;50.820;4.884;2023-03-23T05:49:23;17.10;;;16.10;;
15905;SDS011;8051;50.820;4.884;2023-03-23T05:51:51;18.50;;;17.20;;
15905;SDS011;8051;50.820;4.884;2023-03-23T05:54:19;19.03;;;17.83;;
15905;SDS011;8051;50.820;4.884;2023-03-23T05:56:46;19.50;;;18.30;;
15905;SDS011;8051;50.820;4.884;2023-03-23T05:59:15;19.73;;;18.30;;
15905;SDS011;8051;50.820;4.884;2023-03-23T06:01:42;18.13;;;16.93;;
15905;SDS011;8051;50.820;4.884;2023-03-23T06:04:09;20.03;;;18.87;;
15905;SDS011;8051;50.820;4.884;2023-03-23T06:06:40;20.93;;;19.27;;
15905;SDS011;8051;50.820;4.884;2023-03-23T06:09:09;21.47;;;19.60;;
15905;SDS011;8051;50.820;4.884;2023-03-23T06:11:36;20.77;;;19.17;;
15905;SDS011;8051;50.820;4.884;2023-03-23T06:14:04;20.77;;;19.30;;
15905;SDS011;8051;50.820;4.884;2023-03-23T06:16:31;19.87;;;18.27;;
15905;SDS011;8051;50.820;4.884;2023-03-23T06:18:58;20.70;;;19.20;;
15905;SDS011;8051;50.820;4.884;2023-03-23T06:21:29;19.53;;;18.33;;
15905;SDS011;8051;50.820;4.884;2023-03-23T06:23:58;20.63;;;18.93;;
15905;SDS011;8051;50.820;4.884;2023-03-23T06:26:28;20.57;;;19.07;;
15905;SDS011;8051;50.820;4.884;2023-03-23T06:28:58;19.80;;;18.60;;
15905;SDS011;8051;50.820;4.884;2023-03-23T06:31:26;20.90;;;19.57;;
15905;SDS011;8051;50.820;4.884;2023-03-23T06:33:54;20.50;;;19.10;;
15905;SDS011;8051;50.820;4.884;2023-03-23T06:36:21;21.67;;;20.30;;
15905;SDS011;8051;50.820;4.884;2023-03-23T06:38:51;21.70;;;20.20;;
15905;SDS011;8051;50.820;4.884;2023-03-23T06:41:22;21.40;;;19.80;;
15905;SDS011;8051;50.820;4.884;2023-03-23T06:43:49;22.13;;;20.40;;
15905;SDS011;8051;50.820;4.884;2023-03-23T06:46:18;21.57;;;19.90;;
15905;SDS011;8051;50.820;4.884;2023-03-23T06:48:45;21.67;;;19.77;;
15905;SDS011;8051;50.820;4.884;2023-03-23T06:51:14;20.43;;;19.20;;
15905;SDS011;8051;50.820;4.884;2023-03-23T06:53:42;22.23;;;20.40;;
15905;SDS011;8051;50.820;4.884;2023-03-23T06:56:10;21.33;;;19.93;;
15905;SDS011;8051;50.820;4.884;2023-03-23T06:58:39;21.50;;;20.10;;
15905;SDS011;8051;50.820;4.884;2023-03-23T07:01:07;22.77;;;21.00;;
15905;SDS011;8051;50.820;4.884;2023-03-23T07:03:35;21.70;;;20.20;;
15905;SDS011;8051;50.820;4.884;2023-03-23T07:06:03;21.07;;;19.77;;
15905;SDS011;8051;50.820;4.884;2023-03-23T07:08:31;21.37;;;19.80;;
15905;SDS011;8051;50.820;4.884;2023-03-23T07:10:59;22.03;;;20.33;;
15905;SDS011;8051;50.820;4.884;2023-03-23T07:13:26;21.50;;;20.20;;
15905;SDS011;8051;50.820;4.884;2023-03-23T07:15:55;21.80;;;20.13;;
15905;SDS011;8051;50.820;4.884;2023-03-23T07:18:23;21.03;;;19.73;;
15905;SDS011;8051;50.820;4.884;2023-03-23T07:20:51;21.60;;;20.30;;
15905;SDS011;8051;50.820;4.884;2023-03-23T07:23:19;21.90;;;20.30;;
15905;SDS011;8051;50.820;4.884;2023-03-23T07:25:47;22.20;;;20.50;;
15905;SDS011;8051;50.820;4.884;2023-03-23T07:28:14;22.43;;;20.77;;
15905;SDS011;8051;50.820;4.884;2023-03-23T07:30:42;22.13;;;20.60;;
15905;SDS011;8051;50.820;4.884;2023-03-23T07:33:11;21.67;;;20.27;;
15905;SDS011;8051;50.820;4.884;2023-03-23T07:35:39;23.20;;;21.50;;
15905;SDS011;8051;50.820;4.884;2023-03-23T07:38:07;20.90;;;19.40;;
15905;SDS011;8051;50.820;4.884;2023-03-23T07:40:34;22.00;;;20.47;;
15905;SDS011;8051;50.820;4.884;2023-03-23T07:43:02;22.20;;;20.80;;
15905;SDS011;8051;50.820;4.884;2023-03-23T07:45:30;22.57;;;20.87;;
15905;SDS011;8051;50.820;4.884;2023-03-23T07:47:58;22.83;;;21.30;;
15905;SDS011;8051;50.820;4.884;2023-03-23T07:50:27;21.43;;;19.90;;
15905;SDS011;8051;50.820;4.884;2023-03-23T07:52:55;22.37;;;20.57;;
15905;SDS011;8051;50.820;4.884;2023-03-23T07:55:23;22.50;;;20.90;;
15905;SDS011;8051;50.820;4.884;2023-03-23T07:57:52;22.73;;;21.03;;
15905;SDS011;8051;50.820;4.884;2023-03-23T08:00:21;22.77;;;21.10;;
15905;SDS011;8051;50.820;4.884;2023-03-23T08:02:50;22.23;;;20.87;;
15905;SDS011;8051;50.820;4.884;2023-03-23T08:05:21;22.30;;;20.80;;
15905;SDS011;8051;50.820;4.884;2023-03-23T08:07:52;23.13;;;21.53;;
15905;SDS011;8051;50.820;4.884;2023-03-23T08:10:21;23.53;;;21.83;;
15905;SDS011;8051;50.820;4.884;2023-03-23T08:12:50;24.00;;;22.27;;
15905;SDS011;8051;50.820;4.884;2023-03-23T08:15:19;24.03;;;22.10;;
15905;SDS011;8051;50.820;4.884;2023-03-23T08:17:47;22.90;;;21.13;;
15905;SDS011;8051;50.820;4.884;2023-03-23T08:20:15;23.33;;;21.57;;
15905;SDS011;8051;50.820;4.884;2023-03-23T08:22:44;23.27;;;21.37;;
15905;SDS011;8051;50.820;4.884;2023-03-23T08:25:19;23.03;;;21.33;;
15905;SDS011;8051;50.820;4.884;2023-03-23T08:27:47;23.47;;;21.57;;
15905;SDS011;8051;50.820;4.884;2023-03-23T08:30:16;29.40;;;27.07;;
15905;SDS011;8051;50.820;4.884;2023-03-23T08:32:46;26.90;;;24.80;;
15905;SDS011;8051;50.820;4.884;2023-03-23T08:35:14;23.23;;;21.63;;
15905;SDS011;8051;50.820;4.884;2023-03-23T08:37:43;22.73;;;21.27;;
15905;SDS011;8051;50.820;4.884;2023-03-23T08:40:11;21.43;;;20.00;;
15905;SDS011;8051;50.820;4.884;2023-03-23T08:42:46;21.07;;;19.73;;
15905;SDS011;8051;50.820;4.884;2023-03-23T08:45:17;17.63;;;16.73;;
15905;SDS011;8051;50.820;4.884;2023-03-23T08:47:46;18.33;;;17.13;;
15905;SDS011;8051;50.820;4.884;2023-03-23T08:50:17;19.37;;;18.07;;
15905;SDS011;8051;50.820;4.884;2023-03-23T08:52:48;19.60;;;18.23;;
15905;SDS011;8051;50.820;4.884;2023-03-23T08:55:16;18.60;;;17.40;;
15905;SDS011;8051;50.820;4.884;2023-03-23T08:57:45;20.30;;;18.90;;
15905;SDS011;8051;50.820;4.884;2023-03-23T09:00:14;19.07;;;17.83;;
15905;SDS011;8051;50.820;4.884;2023-03-23T09:02:44;19.33;;;18.23;;
15905;SDS011;8051;50.820;4.884;2023-03-23T09:05:14;20.00;;;18.80;;
15905;SDS011;8051;50.820;4.884;2023-03-23T09:07:43;19.87;;;18.67;;
15905;SDS011;8051;50.820;4.884;2023-03-23T09:10:13;19.40;;;18.10;;
15905;SDS011;8051;50.820;4.884;2023-03-23T09:12:41;19.90;;;18.80;;
15905;SDS011;8051;50.820;4.884;2023-03-23T09:15:12;19.70;;;18.43;;
15905;SDS011;8051;50.820;4.884;2023-03-23T09:17:41;23.77;;;22.47;;
15905;SDS011;8051;50.820;4.884;2023-03-23T09:20:11;25.33;;;23.77;;
15905;SDS011;8051;50.820;4.884;2023-03-23T09:22:40;24.10;;;22.70;;
15905;SDS011;8051;50.820;4.884;2023-03-23T09:25:09;23.47;;;21.93;;
15905;SDS011;8051;50.820;4.884;2023-03-23T09:27:39;21.33;;;19.93;;
15905;SDS011;8051;50.820;4.884;2023-03-23T09:30:08;19.07;;;18.07;;
15905;SDS011;8051;50.820;4.884;2023-03-23T09:32:38;18.60;;;17.70;;
15905;SDS011;8051;50.820;4.884;2023-03-23T09:35:06;19.83;;;18.63;;
15905;SDS011;8051;50.820;4.884;2023-03-23T09:37:38;19.30;;;18.20;;
15905;SDS011;8051;50.820;4.884;2023-03-23T09:40:09;18.40;;;17.20;;
15905;SDS011;8051;50.820;4.884;2023-03-23T09:42:52;18.63;;;17.53;;
15905;SDS011;8051;50.820;4.884;2023-03-23T09:45:38;18.43;;;17.30;;
15905;SDS011;8051;50.820;4.884;2023-03-23T09:51:04;17.77;;;16.60;;
15905;SDS011;8051;50.820;4.884;2023-03-23T09:53:38;17.73;;;16.63;;
15905;SDS011;8051;50.820;4.884;2023-03-23T09:56:09;16.80;;;15.60;;
15905;SDS011;8051;50.820;4.884;2023-03-23T09:58:41;16.47;;;15.53;;
15905;SDS011;8051;50.820;4.884;2023-03-23T10:01:14;14.17;;;13.40;;
15905;SDS011;8051;50.820;4.884;2023-03-23T10:03:47;15.70;;;14.80;;
15905;SDS011;8051;50.820;4.884;2023-03-23T10:06:15;15.70;;;14.87;;
15905;SDS011;8051;50.820;4.884;2023-03-23T10:08:44;15.60;;;14.70;;
15905;SDS011;8051;50.820;4.884;2023-03-23T10:11:14;16.73;;;15.73;;
15905;SDS011;8051;50.820;4.884;2023-03-23T10:13:52;15.87;;;14.70;;
15905;SDS011;8051;50.820;4.884;2023-03-23T10:16:31;17.30;;;16.20;;
15905;SDS011;8051;50.820;4.884;2023-03-23T10:19:03;18.63;;;17.33;;
15905;SDS011;8051;50.820;4.884;2023-03-23T10:21:39;19.20;;;17.90;;
15905;SDS011;8051;50.820;4.884;2023-03-23T10:24:09;20.10;;;18.87;;
15905;SDS011;8051;50.820;4.884;2023-03-23T10:26:42;21.77;;;20.23;;
15905;SDS011;8051;50.820;4.884;2023-03-23T10:29:16;21.57;;;20.17;;
15905;SDS011;8051;50.820;4.884;2023-03-23T10:31:48;21.47;;;20.17;;
15905;SDS011;8051;50.820;4.884;2023-03-23T10:34:23;21.87;;;20.47;;
15905;SDS011;8051;50.820;4.884;2023-03-23T10:37:02;21.47;;;20.13;;
15905;SDS011;8051;50.820;4.884;2023-03-23T10:39:38;21.50;;;20.20;;
15905;SDS011;8051;50.820;4.884;2023-03-23T10:42:20;20.30;;;18.93;;
15905;SDS011;8051;50.820;4.884;2023-03-23T10:44:50;20.73;;;19.20;;
15905;SDS011;8051;50.820;4.884;2023-03-23T10:47:17;20.83;;;19.40;;
15905;SDS011;8051;50.820;4.884;2023-03-23T10:49:47;21.83;;;20.20;;
15905;SDS011;8051;50.820;4.884;2023-03-23T10:55:04;21.97;;;20.47;;
15905;SDS011;8051;50.820;4.884;2023-03-23T10:57:35;21.07;;;19.60;;
15905;SDS011;8051;50.820;4.884;2023-03-23T11:00:04;21.10;;;19.50;;
15905;SDS011;8051;50.820;4.884;2023-03-23T11:02:37;20.60;;;19.10;;
15905;SDS011;8051;50.820;4.884;2023-03-23T11:05:13;21.10;;;19.70;;
15905;SDS011;8051;50.820;4.884;2023-03-23T11:07:48;22.33;;;20.40;;
15905;SDS011;8051;50.820;4.884;2023-03-23T11:10:21;20.93;;;19.70;;
15905;SDS011;8051;50.820;4.884;2023-03-23T11:12:50;21.53;;;20.03;;
15905;SDS011;8051;50.820;4.884;2023-03-23T11:15:24;22.17;;;20.40;;
15905;SDS011;8051;50.820;4.884;2023-03-23T11:17:55;21.97;;;20.37;;
15905;SDS011;8051;50.820;4.884;2023-03-23T11:20:25;21.63;;;20.10;;
15905;SDS011;8051;50.820;4.884;2023-03-23T11:22:53;20.53;;;18.97;;
15905;SDS011;8051;50.820;4.884;2023-03-23T11:25:21;20.30;;;18.90;;
15905;SDS011;8051;50.820;4.884;2023-03-23T11:27:49;19.97;;;18.47;;
15905;SDS011;8051;50.820;4.884;2023-03-23T11:30:21;20.87;;;19.40;;
15905;SDS011;8051;50.820;4.884;2023-03-23T11:32:52;22.33;;;20.80;;
15905;SDS011;8051;50.820;4.884;2023-03-23T11:35:22;22.07;;;20.37;;
15905;SDS011;8051;50.820;4.884;2023-03-23T11:37:53;22.63;;;20.93;;
15905;SDS011;8051;50.820;4.884;2023-03-23T11:40:23;23.27;;;21.53;;
15905;SDS011;8051;50.820;4.884;2023-03-23T11:42:56;23.07;;;21.37;;
15905;SDS011;8051;50.820;4.884;2023-03-23T11:45:31;21.80;;;20.10;;
15905;SDS011;8051;50.820;4.884;2023-03-23T11:48:06;21.73;;;20.13;;
15905;SDS011;8051;50.820;4.884;2023-03-23T11:50:47;21.57;;;20.03;;
15905;SDS011;8051;50.820;4.884;2023-03-23T11:53:29;21.23;;;20.03;;
15905;SDS011;8051;50.820;4.884;2023-03-23T11:56:06;21.93;;;20.47;;
15905;SDS011;8051;50.820;4.884;2023-03-23T11:58:39;21.87;;;20.30;;
15905;SDS011;8051;50.820;4.884;2023-03-23T12:01:10;20.50;;;19.10;;
15905;SDS011;8051;50.820;4.884;2023-03-23T12:03:50;21.33;;;19.83;;
15905;SDS011;8051;50.820;4.884;2023-03-23T12:06:41;22.33;;;20.77;;
15905;SDS011;8051;50.820;4.884;2023-03-23T12:09:22;22.20;;;20.27;;
15905;SDS011;8051;50.820;4.884;2023-03-23T12:12:02;20.70;;;19.30;;
15905;SDS011;8051;50.820;4.884;2023-03-23T12:14:37;23.03;;;21.23;;
15905;SDS011;8051;50.820;4.884;2023-03-23T12:17:16;22.67;;;20.97;;
15905;SDS011;8051;50.820;4.884;2023-03-23T12:19:52;23.53;;;21.70;;
15905;SDS011;8051;50.820;4.884;2023-03-23T12:22:37;26.70;;;24.43;;
15905;SDS011;8051;50.820;4.884;2023-03-23T12:25:18;23.97;;;21.97;;
15905;SDS011;8051;50.820;4.884;2023-03-23T12:28:03;22.93;;;20.93;;
15905;SDS011;8051;50.820;4.884;2023-03-23T12:30:46;22.20;;;20.40;;
15905;SDS011;8051;50.820;4.884;2023-03-23T12:33:25;21.30;;;19.37;;
15905;SDS011;8051;50.820;4.884;2023-03-23T12:36:07;22.70;;;21.03;;
15905;SDS011;8051;50.820;4.884;2023-03-23T12:38:57;21.90;;;20.33;;
15905;SDS011;8051;50.820;4.884;2023-03-23T12:41:34;22.57;;;20.77;;
15905;SDS011;8051;50.820;4.884;2023-03-23T12:44:10;23.50;;;21.47;;
15905;SDS011;8051;50.820;4.884;2023-03-23T12:49:34;21.23;;;19.73;;
15905;SDS011;8051;50.820;4.884;2023-03-23T12:52:08;21.60;;;19.93;;
15905;SDS011;8051;50.820;4.884;2023-03-23T12:54:42;22.13;;;20.53;;
15905;SDS011;8051;50.820;4.884;2023-03-23T12:57:19;21.23;;;19.40;;
15905;SDS011;8051;50.820;4.884;2023-03-23T12:59:57;20.53;;;19.07;;
15905;SDS011;8051;50.820;4.884;2023-03-23T13:02:37;22.30;;;20.60;;
15905;SDS011;8051;50.820;4.884;2023-03-23T13:05:09;23.40;;;21.70;;
15905;SDS011;8051;50.820;4.884;2023-03-23T13:07:41;23.07;;;21.07;;
15905;SDS011;8051;50.820;4.884;2023-03-23T13:10:15;23.73;;;21.47;;
15905;SDS011;8051;50.820;4.884;2023-03-23T13:12:47;22.87;;;20.87;;
15905;SDS011;8051;50.820;4.884;2023-03-23T13:15:18;24.53;;;22.43;;
15905;SDS011;8051;50.820;4.884;2023-03-23T13:17:54;23.87;;;21.47;;
15905;SDS011;8051;50.820;4.884;2023-03-23T13:23:23;22.07;;;20.13;;
15905;SDS011;8051;50.820;4.884;2023-03-23T13:25:55;21.70;;;19.97;;
15905;SDS011;8051;50.820;4.884;2023-03-23T13:28:26;21.63;;;19.67;;
15905;SDS011;8051;50.820;4.884;2023-03-23T13:30:56;22.13;;;20.10;;
15905;SDS011;8051;50.820;4.884;2023-03-23T13:33:29;23.23;;;21.17;;
15905;SDS011;8051;50.820;4.884;2023-03-23T13:36:03;23.20;;;20.97;;
15905;SDS011;8051;50.820;4.884;2023-03-23T13:38:35;24.83;;;22.53;;
15905;SDS011;8051;50.820;4.884;2023-03-23T13:41:08;22.83;;;21.13;;
15905;SDS011;8051;50.820;4.884;2023-03-23T13:43:38;22.93;;;21.13;;
15905;SDS011;8051;50.820;4.884;2023-03-23T13:46:09;23.20;;;21.40;;
15905;SDS011;8051;50.820;4.884;2023-03-23T13:48:51;22.27;;;20.60;;
15905;SDS011;8051;50.820;4.884;2023-03-23T13:51:35;23.50;;;21.60;;
15905;SDS011;8051;50.820;4.884;2023-03-23T13:54:19;23.40;;;21.60;;
15905;SDS011;8051;50.820;4.884;2023-03-23T13:56:58;24.17;;;22.27;;
15905;SDS011;8051;50.820;4.884;2023-03-23T13:59:30;23.43;;;21.63;;
15905;SDS011;8051;50.820;4.884;2023-03-23T14:05:23;24.53;;;22.33;;
15905;SDS011;8051;50.820;4.884;2023-03-23T14:08:02;24.03;;;22.17;;
15905;SDS011;8051;50.820;4.884;2023-03-23T14:10:37;25.27;;;23.20;;
15905;SDS011;8051;50.820;4.884;2023-03-23T14:13:13;24.57;;;22.93;;
15905;SDS011;8051;50.820;4.884;2023-03-23T14:15:44;23.77;;;22.13;;
15905;SDS011;8051;50.820;4.884;2023-03-23T14:18:21;24.23;;;22.43;;
15905;SDS011;8051;50.820;4.884;2023-03-23T14:20:52;25.63;;;23.30;;
15905;SDS011;8051;50.820;4.884;2023-03-23T14:23:19;25.90;;;23.77;;
15905;SDS011;8051;50.820;4.884;2023-03-23T14:25:54;25.47;;;23.03;;
15905;SDS011;8051;50.820;4.884;2023-03-23T14:28:26;24.83;;;22.83;;
15905;SDS011;8051;50.820;4.884;2023-03-23T14:30:54;25.40;;;23.30;;
15905;SDS011;8051;50.820;4.884;2023-03-23T14:33:24;24.73;;;22.50;;
15905;SDS011;8051;50.820;4.884;2023-03-23T14:35:53;24.30;;;22.20;;
15905;SDS011;8051;50.820;4.884;2023-03-23T14:38:24;24.93;;;22.60;;
15905;SDS011;8051;50.820;4.884;2023-03-23T14:40:59;24.83;;;22.40;;
15905;SDS011;8051;50.820;4.884;2023-03-23T14:43:30;24.00;;;21.93;;
15905;SDS011;8051;50.820;4.884;2023-03-23T14:46:02;22.80;;;20.90;;
15905;SDS011;8051;50.820;4.884;2023-03-23T14:48:59;23.77;;;21.67;;
15905;SDS011;8051;50.820;4.884;2023-03-23T14:51:52;23.00;;;21.03;;
15905;SDS011;8051;50.820;4.884;2023-03-23T14:54:31;24.97;;;22.93;;
15905;SDS011;8051;50.820;4.884;2023-03-23T14:57:10;23.60;;;21.70;;
15905;SDS011;8051;50.820;4.884;2023-03-23T14:59:41;23.50;;;21.57;;
15905;SDS011;8051;50.820;4.884;2023-03-23T15:02:10;23.87;;;22.17;;
15905;SDS011;8051;50.820;4.884;2023-03-23T15:04:42;24.10;;;22.50;;
15905;SDS011;8051;50.820;4.884;2023-03-23T15:07:19;25.57;;;23.50;;
15905;SDS011;8051;50.820;4.884;2023-03-23T15:09:50;23.03;;;21.57;;
15905;SDS011;8051;50.820;4.884;2023-03-23T15:12:20;23.20;;;21.60;;
15905;SDS011;8051;50.820;4.884;2023-03-23T15:14:51;24.30;;;22.40;;
15905;SDS011;8051;50.820;4.884;2023-03-23T15:17:21;24.27;;;22.40;;
15905;SDS011;8051;50.820;4.884;2023-03-23T15:19:51;23.27;;;21.50;;